To NAV CANADA Home Page Login to a new session Search on AWWS site Disclaimer Vers la page française équivalente Tips FAQ What's new on the site To the Forecasts and Observations / NOTAM section To "File a Flight Plan" website Publications and other links Update of the User's profile FIC Telephone Numbers My Weather Data Folder Route Weather Data Regional Weather Data Local Weather Data To the Forecasts and Observations / NOTAM section
Request Generated 03/19/2019 at 23:47:01 UTC . Weather information available at that time is displayed.

METAR/TAF

OTTAWA/GATINEAU/QC    

METAR CYND 192300Z 26003KT 15SM FEW070 M00/M09 A3032 RMK AC2 SLP275=
METAR CYND 192200Z 27007KT 15SM SCT080 BKN220 01/M10 A3033 RMK AC4CI1 SLP275=
METAR CYND 192100Z 25007KT 15SM FEW050 SCT083 02/M12 A3033 RMK CU1AC2 SLP278=

TAF CYND 191740Z 1918/2001 VRB03KT P6SM SCT070 TEMPO 1919/1923 BKN070
RMK NXT FCST WILL BE ISSUED AT 201245Z=
Your time UTC time
Weather data provided by Environment Canada and NAV CANADA